sensor_id;sensor_type;location;lat;lon;timestamp;temperature;humidity
3980;DHT22;2004;52.452;13.120;2023-07-31T00:01:49;15.70;99.90
3980;DHT22;2004;52.452;13.120;2023-07-31T00:09:39;15.60;99.90
3980;DHT22;2004;52.452;13.120;2023-07-31T00:17:30;15.60;99.90
3980;DHT22;2004;52.452;13.120;2023-07-31T00:25:21;15.60;99.90
3980;DHT22;2004;52.452;13.120;2023-07-31T00:33:12;15.60;99.90
3980;DHT22;2004;52.452;13.120;2023-07-31T00:41:02;15.70;99.90
3980;DHT22;2004;52.452;13.120;2023-07-31T00:48:53;15.70;99.90
3980;DHT22;2004;52.452;13.120;2023-07-31T00:56:45;15.70;99.90
3980;DHT22;2004;52.452;13.120;2023-07-31T01:04:36;15.70;99.90
3980;DHT22;2004;52.452;13.120;2023-07-31T01:12:27;15.60;99.90
3980;DHT22;2004;52.452;13.120;2023-07-31T01:20:24;15.70;99.90
3980;DHT22;2004;52.452;13.120;2023-07-31T01:28:55;15.70;99.90
3980;DHT22;2004;52.452;13.120;2023-07-31T01:36:47;15.70;99.90
3980;DHT22;2004;52.452;13.120;2023-07-31T01:44:38;15.60;99.90
3980;DHT22;2004;52.452;13.120;2023-07-31T01:52:29;15.60;99.90
3980;DHT22;2004;52.452;13.120;2023-07-31T02:00:21;15.70;99.90
3980;DHT22;2004;52.452;13.120;2023-07-31T02:08:13;15.70;99.90
3980;DHT22;2004;52.452;13.120;2023-07-31T02:16:04;15.70;99.90
3980;DHT22;2004;52.452;13.120;2023-07-31T02:23:55;15.70;99.90
3980;DHT22;2004;52.452;13.120;2023-07-31T02:31:45;15.70;99.90
3980;DHT22;2004;52.452;13.120;2023-07-31T02:39:36;15.70;99.90
3980;DHT22;2004;52.452;13.120;2023-07-31T02:47:27;15.60;99.90
3980;DHT22;2004;52.452;13.120;2023-07-31T02:55:18;15.60;99.90
3980;DHT22;2004;52.452;13.120;2023-07-31T03:03:08;15.60;99.90
3980;DHT22;2004;52.452;13.120;2023-07-31T03:10:59;15.60;99.90
3980;DHT22;2004;52.452;13.120;2023-07-31T03:18:49;15.60;99.90
3980;DHT22;2004;52.452;13.120;2023-07-31T03:26:40;15.60;99.90
3980;DHT22;2004;52.452;13.120;2023-07-31T03:34:31;15.60;99.90
3980;DHT22;2004;52.452;13.120;2023-07-31T03:42:23;15.60;99.90
3980;DHT22;2004;52.452;13.120;2023-07-31T03:50:13;15.60;99.90
3980;DHT22;2004;52.452;13.120;2023-07-31T03:58:04;15.60;99.90
3980;DHT22;2004;52.452;13.120;2023-07-31T04:05:55;15.50;99.90
3980;DHT22;2004;52.452;13.120;2023-07-31T04:13:46;15.60;99.90
3980;DHT22;2004;52.452;13.120;2023-07-31T04:21:36;15.60;99.90
3980;DHT22;2004;52.452;13.120;2023-07-31T04:29:27;15.60;99.90
3980;DHT22;2004;52.452;13.120;2023-07-31T04:37:18;15.60;99.90
3980;DHT22;2004;52.452;13.120;2023-07-31T04:45:10;15.70;99.90
3980;DHT22;2004;52.452;13.120;2023-07-31T04:53:01;15.70;99.90
3980;DHT22;2004;52.452;13.120;2023-07-31T05:00:52;15.70;99.90
3980;DHT22;2004;52.452;13.120;2023-07-31T05:08:42;15.70;99.90
3980;DHT22;2004;52.452;13.120;2023-07-31T05:16:33;15.80;99.90
3980;DHT22;2004;52.452;13.120;2023-07-31T05:24:25;15.90;99.90
3980;DHT22;2004;52.452;13.120;2023-07-31T05:32:15;15.90;99.90
3980;DHT22;2004;52.452;13.120;2023-07-31T05:40:07;15.90;99.90
3980;DHT22;2004;52.452;13.120;2023-07-31T05:47:57;15.90;99.90
3980;DHT22;2004;52.452;13.120;2023-07-31T05:55:48;16.00;99.90
3980;DHT22;2004;52.452;13.120;2023-07-31T06:03:39;16.00;99.90
3980;DHT22;2004;52.452;13.120;2023-07-31T06:11:29;16.10;99.90
3980;DHT22;2004;52.452;13.120;2023-07-31T06:19:20;16.20;99.90
3980;DHT22;2004;52.452;13.120;2023-07-31T06:27:11;16.20;99.90
3980;DHT22;2004;52.452;13.120;2023-07-31T06:35:01;16.20;99.90
3980;DHT22;2004;52.452;13.120;2023-07-31T06:42:52;16.30;99.90
3980;DHT22;2004;52.452;13.120;2023-07-31T06:50:43;16.40;99.90
3980;DHT22;2004;52.452;13.120;2023-07-31T06:58:33;16.40;99.90
3980;DHT22;2004;52.452;13.120;2023-07-31T07:06:24;16.40;99.90
3980;DHT22;2004;52.452;13.120;2023-07-31T07:14:15;16.40;99.90
3980;DHT22;2004;52.452;13.120;2023-07-31T07:22:06;16.40;99.90
3980;DHT22;2004;52.452;13.120;2023-07-31T07:30:03;16.40;99.90
3980;DHT22;2004;52.452;13.120;2023-07-31T07:37:55;16.40;99.90
3980;DHT22;2004;52.452;13.120;2023-07-31T07:45:46;16.50;99.90
3980;DHT22;2004;52.452;13.120;2023-07-31T07:53:39;16.60;99.90
3980;DHT22;2004;52.452;13.120;2023-07-31T08:01:32;16.60;99.90
3980;DHT22;2004;52.452;13.120;2023-07-31T08:09:23;16.70;99.90
3980;DHT22;2004;52.452;13.120;2023-07-31T08:17:14;16.80;99.90
3980;DHT22;2004;52.452;13.120;2023-07-31T08:25:05;16.80;99.90
3980;DHT22;2004;52.452;13.120;2023-07-31T08:32:57;17.00;99.90
3980;DHT22;2004;52.452;13.120;2023-07-31T08:40:47;17.00;99.90
3980;DHT22;2004;52.452;13.120;2023-07-31T08:48:41;17.10;99.90
3980;DHT22;2004;52.452;13.120;2023-07-31T08:56:32;17.10;99.90
3980;DHT22;2004;52.452;13.120;2023-07-31T09:04:23;17.20;99.90
3980;DHT22;2004;52.452;13.120;2023-07-31T09:12:16;17.20;99.90
3980;DHT22;2004;52.452;13.120;2023-07-31T09:28:09;17.10;99.90
3980;DHT22;2004;52.452;13.120;2023-07-31T09:36:01;17.10;99.90
3980;DHT22;2004;52.452;13.120;2023-07-31T09:43:54;17.10;99.90
3980;DHT22;2004;52.452;13.120;2023-07-31T09:51:46;17.20;99.90
3980;DHT22;2004;52.452;13.120;2023-07-31T09:59:37;17.30;99.90
3980;DHT22;2004;52.452;13.120;2023-07-31T10:07:30;17.40;99.90
3980;DHT22;2004;52.452;13.120;2023-07-31T10:15:21;17.40;99.90
3980;DHT22;2004;52.452;13.120;2023-07-31T10:23:12;17.60;99.90
3980;DHT22;2004;52.452;13.120;2023-07-31T10:31:04;17.80;99.90
3980;DHT22;2004;52.452;13.120;2023-07-31T10:38:58;18.20;99.90
3980;DHT22;2004;52.452;13.120;2023-07-31T10:46:48;18.60;99.90
3980;DHT22;2004;52.452;13.120;2023-07-31T10:54:39;18.90;99.90
3980;DHT22;2004;52.452;13.120;2023-07-31T11:02:33;19.10;99.90
3980;DHT22;2004;52.452;13.120;2023-07-31T11:10:23;19.30;99.90
3980;DHT22;2004;52.452;13.120;2023-07-31T11:18:16;19.30;99.90
3980;DHT22;2004;52.452;13.120;2023-07-31T11:26:07;19.30;99.90
3980;DHT22;2004;52.452;13.120;2023-07-31T11:34:06;19.30;99.90
3980;DHT22;2004;52.452;13.120;2023-07-31T11:41:59;19.40;99.90
3980;DHT22;2004;52.452;13.120;2023-07-31T11:49:51;19.30;99.90
3980;DHT22;2004;52.452;13.120;2023-07-31T11:57:43;19.30;99.90
3980;DHT22;2004;52.452;13.120;2023-07-31T12:05:37;19.30;99.90
3980;DHT22;2004;52.452;13.120;2023-07-31T12:13:31;19.40;99.90
3980;DHT22;2004;52.452;13.120;2023-07-31T12:21:22;19.60;99.90
3980;DHT22;2004;52.452;13.120;2023-07-31T12:29:12;19.80;99.90
3980;DHT22;2004;52.452;13.120;2023-07-31T12:37:06;19.90;99.90
3980;DHT22;2004;52.452;13.120;2023-07-31T12:44:56;19.90;99.90
3980;DHT22;2004;52.452;13.120;2023-07-31T12:52:47;19.80;99.90
3980;DHT22;2004;52.452;13.120;2023-07-31T13:00:38;19.60;99.90
3980;DHT22;2004;52.452;13.120;2023-07-31T13:08:28;19.70;99.90
3980;DHT22;2004;52.452;13.120;2023-07-31T13:16:19;19.80;99.90
3980;DHT22;2004;52.452;13.120;2023-07-31T13:24:09;20.00;99.90
3980;DHT22;2004;52.452;13.120;2023-07-31T13:32:01;20.20;99.90
3980;DHT22;2004;52.452;13.120;2023-07-31T13:39:51;20.30;99.90
3980;DHT22;2004;52.452;13.120;2023-07-31T13:47:42;20.40;99.90
3980;DHT22;2004;52.452;13.120;2023-07-31T13:55:33;20.30;99.90
3980;DHT22;2004;52.452;13.120;2023-07-31T14:03:23;20.40;99.90
3980;DHT22;2004;52.452;13.120;2023-07-31T14:11:14;20.50;99.90
3980;DHT22;2004;52.452;13.120;2023-07-31T14:19:04;20.60;99.90
3980;DHT22;2004;52.452;13.120;2023-07-31T14:26:55;20.60;99.90
3980;DHT22;2004;52.452;13.120;2023-07-31T14:34:49;20.60;99.90
3980;DHT22;2004;52.452;13.120;2023-07-31T14:42:39;20.60;99.90
3980;DHT22;2004;52.452;13.120;2023-07-31T14:50:30;20.50;99.90
3980;DHT22;2004;52.452;13.120;2023-07-31T14:58:20;20.40;99.90
3980;DHT22;2004;52.452;13.120;2023-07-31T15:06:11;20.40;99.90
3980;DHT22;2004;52.452;13.120;2023-07-31T15:14:03;20.30;99.90
3980;DHT22;2004;52.452;13.120;2023-07-31T15:21:54;20.40;99.90
3980;DHT22;2004;52.452;13.120;2023-07-31T15:29:45;20.20;99.90
3980;DHT22;2004;52.452;13.120;2023-07-31T15:37:38;20.00;99.90
3980;DHT22;2004;52.452;13.120;2023-07-31T15:45:29;20.00;99.90
3980;DHT22;2004;52.452;13.120;2023-07-31T15:53:20;19.90;99.90
3980;DHT22;2004;52.452;13.120;2023-07-31T16:01:11;19.90;99.90
3980;DHT22;2004;52.452;13.120;2023-07-31T16:09:01;19.90;99.90
3980;DHT22;2004;52.452;13.120;2023-07-31T16:16:52;19.90;99.90
3980;DHT22;2004;52.452;13.120;2023-07-31T16:24:44;19.90;99.90
3980;DHT22;2004;52.452;13.120;2023-07-31T16:32:35;20.00;99.90
3980;DHT22;2004;52.452;13.120;2023-07-31T16:40:25;20.10;99.90
3980;DHT22;2004;52.452;13.120;2023-07-31T16:48:16;20.10;99.90
3980;DHT22;2004;52.452;13.120;2023-07-31T16:56:06;20.10;99.90
3980;DHT22;2004;52.452;13.120;2023-07-31T17:03:58;20.20;99.90
3980;DHT22;2004;52.452;13.120;2023-07-31T17:11:50;20.20;99.90
3980;DHT22;2004;52.452;13.120;2023-07-31T17:19:40;20.00;99.90
3980;DHT22;2004;52.452;13.120;2023-07-31T17:27:31;19.80;99.90
3980;DHT22;2004;52.452;13.120;2023-07-31T17:35:21;19.60;99.90
3980;DHT22;2004;52.452;13.120;2023-07-31T17:43:12;19.50;99.90
3980;DHT22;2004;52.452;13.120;2023-07-31T17:51:02;19.50;99.90
3980;DHT22;2004;52.452;13.120;2023-07-31T17:58:53;19.40;99.90
3980;DHT22;2004;52.452;13.120;2023-07-31T18:06:43;19.50;99.90
3980;DHT22;2004;52.452;13.120;2023-07-31T18:14:34;19.40;99.90
3980;DHT22;2004;52.452;13.120;2023-07-31T18:22:27;19.40;99.90
3980;DHT22;2004;52.452;13.120;2023-07-31T18:30:18;19.30;99.90
3980;DHT22;2004;52.452;13.120;2023-07-31T18:38:09;19.30;99.90
3980;DHT22;2004;52.452;13.120;2023-07-31T18:45:59;19.30;99.90
3980;DHT22;2004;52.452;13.120;2023-07-31T18:53:50;19.30;99.90
3980;DHT22;2004;52.452;13.120;2023-07-31T19:01:40;19.40;99.90
3980;DHT22;2004;52.452;13.120;2023-07-31T19:09:34;19.30;99.90
3980;DHT22;2004;52.452;13.120;2023-07-31T19:17:27;19.30;99.90
3980;DHT22;2004;52.452;13.120;2023-07-31T19:25:18;19.30;99.90
3980;DHT22;2004;52.452;13.120;2023-07-31T19:33:08;19.30;99.90
3980;DHT22;2004;52.452;13.120;2023-07-31T19:40:59;19.30;99.90
3980;DHT22;2004;52.452;13.120;2023-07-31T19:48:53;19.30;99.90
3980;DHT22;2004;52.452;13.120;2023-07-31T19:56:44;19.30;99.90
3980;DHT22;2004;52.452;13.120;2023-07-31T20:04:34;19.20;99.90
3980;DHT22;2004;52.452;13.120;2023-07-31T20:12:28;19.20;99.90
3980;DHT22;2004;52.452;13.120;2023-07-31T20:20:18;19.20;99.90
3980;DHT22;2004;52.452;13.120;2023-07-31T20:28:09;19.20;99.90
3980;DHT22;2004;52.452;13.120;2023-07-31T20:36:00;19.20;99.90
3980;DHT22;2004;52.452;13.120;2023-07-31T20:43:51;19.10;99.90
3980;DHT22;2004;52.452;13.120;2023-07-31T20:51:42;19.10;99.90
3980;DHT22;2004;52.452;13.120;2023-07-31T20:59:34;19.10;99.90
3980;DHT22;2004;52.452;13.120;2023-07-31T21:07:24;19.10;99.90
3980;DHT22;2004;52.452;13.120;2023-07-31T21:15:15;19.00;99.90
3980;DHT22;2004;52.452;13.120;2023-07-31T21:23:05;19.00;99.90
3980;DHT22;2004;52.452;13.120;2023-07-31T21:31:07;19.00;99.90
3980;DHT22;2004;52.452;13.120;2023-07-31T21:38:58;19.00;99.90
3980;DHT22;2004;52.452;13.120;2023-07-31T21:46:48;19.00;99.90
3980;DHT22;2004;52.452;13.120;2023-07-31T21:54:39;19.00;99.90
3980;DHT22;2004;52.452;13.120;2023-07-31T22:02:30;18.90;99.90
3980;DHT22;2004;52.452;13.120;2023-07-31T22:10:21;18.90;99.90
3980;DHT22;2004;52.452;13.120;2023-07-31T22:18:12;18.90;99.90
3980;DHT22;2004;52.452;13.120;2023-07-31T22:26:02;18.90;99.90
3980;DHT22;2004;52.452;13.120;2023-07-31T22:33:53;18.90;99.90
3980;DHT22;2004;52.452;13.120;2023-07-31T22:41:43;18.90;99.90
3980;DHT22;2004;52.452;13.120;2023-07-31T22:49:34;18.90;99.90
3980;DHT22;2004;52.452;13.120;2023-07-31T22:57:24;18.90;99.90
3980;DHT22;2004;52.452;13.120;2023-07-31T23:05:15;18.90;99.90
3980;DHT22;2004;52.452;13.120;2023-07-31T23:13:05;18.80;99.90
3980;DHT22;2004;52.452;13.120;2023-07-31T23:20:56;18.80;99.90
3980;DHT22;2004;52.452;13.120;2023-07-31T23:28:47;18.80;99.90
3980;DHT22;2004;52.452;13.120;2023-07-31T23:36:38;18.70;99.90
3980;DHT22;2004;52.452;13.120;2023-07-31T23:44:28;18.60;99.90
3980;DHT22;2004;52.452;13.120;2023-07-31T23:52:19;18.50;99.90
